sensor_id;sensor_type;location;lat;lon;timestamp;P1;durP1;ratioP1;P2;durP2;ratioP2
7233;SDS011;3658;47.992;10.158;2023-03-19T00:01:29;4.83;;;4.07;;
7233;SDS011;3658;47.992;10.158;2023-03-19T00:03:56;5.70;;;4.00;;
7233;SDS011;3658;47.992;10.158;2023-03-19T00:06:23;5.10;;;4.20;;
7233;SDS011;3658;47.992;10.158;2023-03-19T00:08:50;5.23;;;4.17;;
7233;SDS011;3658;47.992;10.158;2023-03-19T00:11:17;4.93;;;3.63;;
7233;SDS011;3658;47.992;10.158;2023-03-19T00:13:44;4.23;;;3.60;;
7233;SDS011;3658;47.992;10.158;2023-03-19T00:16:12;4.77;;;3.70;;
7233;SDS011;3658;47.992;10.158;2023-03-19T00:18:39;4.30;;;3.53;;
7233;SDS011;3658;47.992;10.158;2023-03-19T00:21:07;4.63;;;3.67;;
7233;SDS011;3658;47.992;10.158;2023-03-19T00:23:34;4.10;;;3.70;;
7233;SDS011;3658;47.992;10.158;2023-03-19T00:26:01;3.87;;;3.47;;
7233;SDS011;3658;47.992;10.158;2023-03-19T00:28:28;5.60;;;3.40;;
7233;SDS011;3658;47.992;10.158;2023-03-19T00:30:55;3.67;;;3.37;;
7233;SDS011;3658;47.992;10.158;2023-03-19T00:33:24;4.03;;;3.63;;
7233;SDS011;3658;47.992;10.158;2023-03-19T00:35:51;4.27;;;3.53;;
7233;SDS011;3658;47.992;10.158;2023-03-19T00:38:18;4.20;;;3.57;;
7233;SDS011;3658;47.992;10.158;2023-03-19T00:40:45;3.30;;;2.90;;
7233;SDS011;3658;47.992;10.158;2023-03-19T00:43:12;3.30;;;3.00;;
7233;SDS011;3658;47.992;10.158;2023-03-19T00:45:39;4.63;;;3.97;;
7233;SDS011;3658;47.992;10.158;2023-03-19T00:48:06;4.37;;;3.53;;
7233;SDS011;3658;47.992;10.158;2023-03-19T00:50:34;4.00;;;3.30;;
7233;SDS011;3658;47.992;10.158;2023-03-19T00:53:01;3.97;;;3.33;;
7233;SDS011;3658;47.992;10.158;2023-03-19T00:55:28;4.17;;;3.17;;
7233;SDS011;3658;47.992;10.158;2023-03-19T00:57:55;3.37;;;3.07;;
7233;SDS011;3658;47.992;10.158;2023-03-19T01:00:22;3.60;;;3.23;;
7233;SDS011;3658;47.992;10.158;2023-03-19T01:02:49;3.73;;;3.40;;
7233;SDS011;3658;47.992;10.158;2023-03-19T01:05:16;3.50;;;3.20;;
7233;SDS011;3658;47.992;10.158;2023-03-19T01:07:44;4.37;;;3.40;;
7233;SDS011;3658;47.992;10.158;2023-03-19T01:10:11;3.50;;;3.00;;
7233;SDS011;3658;47.992;10.158;2023-03-19T01:12:38;4.10;;;3.47;;
7233;SDS011;3658;47.992;10.158;2023-03-19T01:15:06;3.30;;;3.00;;
7233;SDS011;3658;47.992;10.158;2023-03-19T01:17:33;3.27;;;2.70;;
7233;SDS011;3658;47.992;10.158;2023-03-19T01:20:01;3.50;;;3.20;;
7233;SDS011;3658;47.992;10.158;2023-03-19T01:22:28;3.37;;;2.70;;
7233;SDS011;3658;47.992;10.158;2023-03-19T01:24:56;4.43;;;3.33;;
7233;SDS011;3658;47.992;10.158;2023-03-19T01:27:23;3.97;;;3.10;;
7233;SDS011;3658;47.992;10.158;2023-03-19T01:29:50;3.27;;;2.97;;
7233;SDS011;3658;47.992;10.158;2023-03-19T01:32:17;3.83;;;3.20;;
7233;SDS011;3658;47.992;10.158;2023-03-19T01:34:44;2.87;;;2.60;;
7233;SDS011;3658;47.992;10.158;2023-03-19T01:37:11;3.50;;;3.20;;
7233;SDS011;3658;47.992;10.158;2023-03-19T01:39:38;4.53;;;3.20;;
7233;SDS011;3658;47.992;10.158;2023-03-19T01:42:07;3.27;;;2.87;;
7233;SDS011;3658;47.992;10.158;2023-03-19T01:44:34;3.03;;;2.73;;
7233;SDS011;3658;47.992;10.158;2023-03-19T01:47:03;3.17;;;2.77;;
7233;SDS011;3658;47.992;10.158;2023-03-19T01:49:31;3.27;;;2.90;;
7233;SDS011;3658;47.992;10.158;2023-03-19T01:51:59;3.20;;;2.90;;
7233;SDS011;3658;47.992;10.158;2023-03-19T01:54:29;4.20;;;3.27;;
7233;SDS011;3658;47.992;10.158;2023-03-19T01:56:58;3.10;;;2.70;;
7233;SDS011;3658;47.992;10.158;2023-03-19T01:59:30;2.73;;;2.47;;
7233;SDS011;3658;47.992;10.158;2023-03-19T02:02:01;3.40;;;3.10;;
7233;SDS011;3658;47.992;10.158;2023-03-19T02:04:32;3.77;;;2.93;;
7233;SDS011;3658;47.992;10.158;2023-03-19T02:07:01;3.37;;;3.07;;
7233;SDS011;3658;47.992;10.158;2023-03-19T02:09:29;3.50;;;2.90;;
7233;SDS011;3658;47.992;10.158;2023-03-19T02:11:57;3.03;;;2.77;;
7233;SDS011;3658;47.992;10.158;2023-03-19T02:14:25;3.40;;;2.67;;
7233;SDS011;3658;47.992;10.158;2023-03-19T02:16:54;3.10;;;2.80;;
7233;SDS011;3658;47.992;10.158;2023-03-19T02:19:22;3.20;;;2.90;;
7233;SDS011;3658;47.992;10.158;2023-03-19T02:21:56;3.20;;;2.90;;
7233;SDS011;3658;47.992;10.158;2023-03-19T02:24:26;3.20;;;2.50;;
7233;SDS011;3658;47.992;10.158;2023-03-19T02:26:59;2.80;;;2.50;;
7233;SDS011;3658;47.992;10.158;2023-03-19T02:29:26;3.23;;;2.70;;
7233;SDS011;3658;47.992;10.158;2023-03-19T02:31:53;2.80;;;2.60;;
7233;SDS011;3658;47.992;10.158;2023-03-19T02:34:34;4.00;;;2.67;;
7233;SDS011;3658;47.992;10.158;2023-03-19T02:37:03;2.67;;;2.47;;
7233;SDS011;3658;47.992;10.158;2023-03-19T02:39:35;2.90;;;2.70;;
7233;SDS011;3658;47.992;10.158;2023-03-19T02:42:10;3.47;;;2.80;;
7233;SDS011;3658;47.992;10.158;2023-03-19T02:44:38;3.00;;;2.63;;
7233;SDS011;3658;47.992;10.158;2023-03-19T02:47:05;3.00;;;2.70;;
7233;SDS011;3658;47.992;10.158;2023-03-19T02:49:32;2.57;;;2.33;;
7233;SDS011;3658;47.992;10.158;2023-03-19T02:52:00;2.67;;;2.40;;
7233;SDS011;3658;47.992;10.158;2023-03-19T02:54:27;3.50;;;2.87;;
7233;SDS011;3658;47.992;10.158;2023-03-19T02:56:54;3.03;;;2.70;;
7233;SDS011;3658;47.992;10.158;2023-03-19T02:59:22;2.80;;;2.60;;
7233;SDS011;3658;47.992;10.158;2023-03-19T03:01:49;3.43;;;3.03;;
7233;SDS011;3658;47.992;10.158;2023-03-19T03:04:16;2.70;;;2.50;;
7233;SDS011;3658;47.992;10.158;2023-03-19T03:06:43;3.13;;;2.83;;
7233;SDS011;3658;47.992;10.158;2023-03-19T03:09:10;2.53;;;2.33;;
7233;SDS011;3658;47.992;10.158;2023-03-19T03:11:38;2.70;;;2.47;;
7233;SDS011;3658;47.992;10.158;2023-03-19T03:14:07;2.53;;;2.23;;
7233;SDS011;3658;47.992;10.158;2023-03-19T03:16:36;3.03;;;2.70;;
7233;SDS011;3658;47.992;10.158;2023-03-19T03:19:03;3.37;;;2.50;;
7233;SDS011;3658;47.992;10.158;2023-03-19T03:21:31;3.73;;;2.90;;
7233;SDS011;3658;47.992;10.158;2023-03-19T03:23:58;2.67;;;2.47;;
7233;SDS011;3658;47.992;10.158;2023-03-19T03:26:26;2.80;;;2.47;;
7233;SDS011;3658;47.992;10.158;2023-03-19T03:28:52;2.67;;;2.47;;
7233;SDS011;3658;47.992;10.158;2023-03-19T03:31:19;2.63;;;2.40;;
7233;SDS011;3658;47.992;10.158;2023-03-19T03:33:48;2.70;;;2.50;;
7233;SDS011;3658;47.992;10.158;2023-03-19T03:36:15;2.27;;;2.07;;
7233;SDS011;3658;47.992;10.158;2023-03-19T03:38:43;2.13;;;2.03;;
7233;SDS011;3658;47.992;10.158;2023-03-19T03:41:10;2.90;;;2.37;;
7233;SDS011;3658;47.992;10.158;2023-03-19T03:43:37;3.00;;;2.60;;
7233;SDS011;3658;47.992;10.158;2023-03-19T03:46:05;2.70;;;2.50;;
7233;SDS011;3658;47.992;10.158;2023-03-19T03:48:32;2.60;;;2.20;;
7233;SDS011;3658;47.992;10.158;2023-03-19T03:51:01;2.53;;;2.30;;
7233;SDS011;3658;47.992;10.158;2023-03-19T03:53:28;2.70;;;2.27;;
7233;SDS011;3658;47.992;10.158;2023-03-19T03:55:55;2.80;;;2.50;;
7233;SDS011;3658;47.992;10.158;2023-03-19T03:58:22;2.40;;;2.20;;
7233;SDS011;3658;47.992;10.158;2023-03-19T04:00:49;2.50;;;2.27;;
7233;SDS011;3658;47.992;10.158;2023-03-19T04:03:16;2.70;;;2.50;;
7233;SDS011;3658;47.992;10.158;2023-03-19T04:05:44;2.57;;;2.37;;
7233;SDS011;3658;47.992;10.158;2023-03-19T04:08:12;2.37;;;2.17;;
7233;SDS011;3658;47.992;10.158;2023-03-19T04:10:40;2.57;;;2.37;;
7233;SDS011;3658;47.992;10.158;2023-03-19T04:13:08;2.53;;;2.33;;
7233;SDS011;3658;47.992;10.158;2023-03-19T04:15:35;2.37;;;2.17;;
7233;SDS011;3658;47.992;10.158;2023-03-19T04:18:02;2.50;;;2.30;;
7233;SDS011;3658;47.992;10.158;2023-03-19T04:20:29;2.30;;;2.00;;
7233;SDS011;3658;47.992;10.158;2023-03-19T04:22:56;2.37;;;2.17;;
7233;SDS011;3658;47.992;10.158;2023-03-19T04:25:24;2.60;;;2.40;;
7233;SDS011;3658;47.992;10.158;2023-03-19T04:27:51;2.30;;;2.10;;
7233;SDS011;3658;47.992;10.158;2023-03-19T04:30:19;2.53;;;2.33;;
7233;SDS011;3658;47.992;10.158;2023-03-19T04:32:46;2.30;;;2.10;;
7233;SDS011;3658;47.992;10.158;2023-03-19T04:35:13;2.53;;;2.20;;
7233;SDS011;3658;47.992;10.158;2023-03-19T04:37:42;2.30;;;2.10;;
7233;SDS011;3658;47.992;10.158;2023-03-19T04:40:12;2.30;;;2.00;;
7233;SDS011;3658;47.992;10.158;2023-03-19T04:42:41;2.63;;;2.17;;
7233;SDS011;3658;47.992;10.158;2023-03-19T04:45:09;2.53;;;2.30;;
7233;SDS011;3658;47.992;10.158;2023-03-19T04:47:37;2.60;;;2.10;;
7233;SDS011;3658;47.992;10.158;2023-03-19T04:50:04;2.70;;;2.30;;
7233;SDS011;3658;47.992;10.158;2023-03-19T04:52:32;2.20;;;2.00;;
7233;SDS011;3658;47.992;10.158;2023-03-19T04:55:01;2.10;;;1.90;;
7233;SDS011;3658;47.992;10.158;2023-03-19T04:57:28;3.73;;;2.10;;
7233;SDS011;3658;47.992;10.158;2023-03-19T04:59:56;2.60;;;2.10;;
7233;SDS011;3658;47.992;10.158;2023-03-19T05:02:23;2.30;;;2.10;;
7233;SDS011;3658;47.992;10.158;2023-03-19T05:04:52;2.47;;;2.20;;
7233;SDS011;3658;47.992;10.158;2023-03-19T05:07:19;2.10;;;1.80;;
7233;SDS011;3658;47.992;10.158;2023-03-19T05:09:46;1.80;;;1.70;;
7233;SDS011;3658;47.992;10.158;2023-03-19T05:12:14;2.47;;;2.17;;
7233;SDS011;3658;47.992;10.158;2023-03-19T05:14:41;2.20;;;2.00;;
7233;SDS011;3658;47.992;10.158;2023-03-19T05:17:09;2.17;;;1.80;;
7233;SDS011;3658;47.992;10.158;2023-03-19T05:19:36;2.27;;;2.07;;
7233;SDS011;3658;47.992;10.158;2023-03-19T05:22:03;2.20;;;1.93;;
7233;SDS011;3658;47.992;10.158;2023-03-19T05:24:30;2.37;;;2.00;;
7233;SDS011;3658;47.992;10.158;2023-03-19T05:26:57;2.10;;;1.90;;
7233;SDS011;3658;47.992;10.158;2023-03-19T05:29:24;1.80;;;1.70;;
7233;SDS011;3658;47.992;10.158;2023-03-19T05:31:52;1.90;;;1.70;;
7233;SDS011;3658;47.992;10.158;2023-03-19T05:34:20;2.10;;;1.77;;
7233;SDS011;3658;47.992;10.158;2023-03-19T05:36:47;2.63;;;1.70;;
7233;SDS011;3658;47.992;10.158;2023-03-19T05:39:14;2.10;;;1.80;;
7233;SDS011;3658;47.992;10.158;2023-03-19T05:41:41;2.80;;;2.20;;
7233;SDS011;3658;47.992;10.158;2023-03-19T05:44:08;2.77;;;2.10;;
7233;SDS011;3658;47.992;10.158;2023-03-19T05:46:35;1.77;;;1.67;;
7233;SDS011;3658;47.992;10.158;2023-03-19T05:49:02;3.20;;;1.90;;
7233;SDS011;3658;47.992;10.158;2023-03-19T05:51:31;1.90;;;1.80;;
7233;SDS011;3658;47.992;10.158;2023-03-19T05:53:58;2.20;;;1.70;;
7233;SDS011;3658;47.992;10.158;2023-03-19T05:56:25;2.00;;;1.80;;
7233;SDS011;3658;47.992;10.158;2023-03-19T05:58:52;2.30;;;1.80;;
7233;SDS011;3658;47.992;10.158;2023-03-19T06:01:19;2.20;;;2.00;;
7233;SDS011;3658;47.992;10.158;2023-03-19T06:03:47;2.27;;;1.80;;
7233;SDS011;3658;47.992;10.158;2023-03-19T06:06:14;2.20;;;1.77;;
7233;SDS011;3658;47.992;10.158;2023-03-19T06:08:42;2.30;;;2.10;;
7233;SDS011;3658;47.992;10.158;2023-03-19T06:11:09;2.00;;;1.80;;
7233;SDS011;3658;47.992;10.158;2023-03-19T06:13:36;2.23;;;1.80;;
7233;SDS011;3658;47.992;10.158;2023-03-19T06:16:03;3.17;;;1.97;;
7233;SDS011;3658;47.992;10.158;2023-03-19T06:18:31;2.67;;;1.90;;
7233;SDS011;3658;47.992;10.158;2023-03-19T06:20:58;2.43;;;1.90;;
7233;SDS011;3658;47.992;10.158;2023-03-19T06:23:25;2.50;;;2.03;;
7233;SDS011;3658;47.992;10.158;2023-03-19T06:25:54;1.70;;;1.60;;
7233;SDS011;3658;47.992;10.158;2023-03-19T06:28:21;2.10;;;1.90;;
7233;SDS011;3658;47.992;10.158;2023-03-19T06:30:48;2.33;;;1.80;;
7233;SDS011;3658;47.992;10.158;2023-03-19T06:33:15;2.73;;;1.93;;
7233;SDS011;3658;47.992;10.158;2023-03-19T06:35:42;2.00;;;1.80;;
7233;SDS011;3658;47.992;10.158;2023-03-19T06:38:09;2.17;;;1.80;;
7233;SDS011;3658;47.992;10.158;2023-03-19T06:40:36;1.80;;;1.70;;
7233;SDS011;3658;47.992;10.158;2023-03-19T06:43:04;2.47;;;1.90;;
7233;SDS011;3658;47.992;10.158;2023-03-19T06:45:31;2.17;;;1.97;;
7233;SDS011;3658;47.992;10.158;2023-03-19T06:47:58;2.57;;;1.90;;
7233;SDS011;3658;47.992;10.158;2023-03-19T06:50:25;1.80;;;1.70;;
7233;SDS011;3658;47.992;10.158;2023-03-19T06:52:52;2.23;;;1.90;;
7233;SDS011;3658;47.992;10.158;2023-03-19T06:55:19;2.70;;;2.03;;
7233;SDS011;3658;47.992;10.158;2023-03-19T06:57:47;2.97;;;1.80;;
7233;SDS011;3658;47.992;10.158;2023-03-19T07:00:17;2.20;;;2.00;;
7233;SDS011;3658;47.992;10.158;2023-03-19T07:02:44;2.47;;;2.20;;
7233;SDS011;3658;47.992;10.158;2023-03-19T07:05:12;2.93;;;2.20;;
7233;SDS011;3658;47.992;10.158;2023-03-19T07:07:39;3.30;;;2.43;;
7233;SDS011;3658;47.992;10.158;2023-03-19T07:10:07;6.10;;;2.20;;
7233;SDS011;3658;47.992;10.158;2023-03-19T07:12:34;7.83;;;2.30;;
7233;SDS011;3658;47.992;10.158;2023-03-19T07:15:01;4.57;;;2.03;;
7233;SDS011;3658;47.992;10.158;2023-03-19T07:17:31;5.47;;;2.00;;
7233;SDS011;3658;47.992;10.158;2023-03-19T07:19:57;3.10;;;2.23;;
7233;SDS011;3658;47.992;10.158;2023-03-19T07:22:24;4.43;;;2.10;;
7233;SDS011;3658;47.992;10.158;2023-03-19T07:24:51;4.10;;;2.10;;
7233;SDS011;3658;47.992;10.158;2023-03-19T07:27:19;2.77;;;1.80;;
7233;SDS011;3658;47.992;10.158;2023-03-19T07:29:46;4.83;;;2.23;;
7233;SDS011;3658;47.992;10.158;2023-03-19T07:32:13;3.10;;;1.93;;
7233;SDS011;3658;47.992;10.158;2023-03-19T07:34:42;3.67;;;2.20;;
7233;SDS011;3658;47.992;10.158;2023-03-19T07:37:09;3.07;;;1.97;;
7233;SDS011;3658;47.992;10.158;2023-03-19T07:39:36;2.03;;;1.70;;
7233;SDS011;3658;47.992;10.158;2023-03-19T07:42:03;4.07;;;2.00;;
7233;SDS011;3658;47.992;10.158;2023-03-19T07:44:30;3.43;;;1.90;;
7233;SDS011;3658;47.992;10.158;2023-03-19T07:46:57;4.13;;;1.77;;
7233;SDS011;3658;47.992;10.158;2023-03-19T07:49:24;2.63;;;1.87;;
7233;SDS011;3658;47.992;10.158;2023-03-19T07:51:53;7.27;;;2.10;;
7233;SDS011;3658;47.992;10.158;2023-03-19T07:54:20;1.93;;;1.80;;
7233;SDS011;3658;47.992;10.158;2023-03-19T07:56:47;3.40;;;1.97;;
7233;SDS011;3658;47.992;10.158;2023-03-19T07:59:14;2.43;;;2.10;;
7233;SDS011;3658;47.992;10.158;2023-03-19T08:01:41;3.13;;;2.00;;
7233;SDS011;3658;47.992;10.158;2023-03-19T08:04:08;3.13;;;1.90;;
7233;SDS011;3658;47.992;10.158;2023-03-19T08:06:35;4.27;;;1.70;;
7233;SDS011;3658;47.992;10.158;2023-03-19T08:09:05;4.00;;;2.10;;
7233;SDS011;3658;47.992;10.158;2023-03-19T08:11:33;2.53;;;2.00;;
7233;SDS011;3658;47.992;10.158;2023-03-19T08:14:01;1.97;;;1.77;;
7233;SDS011;3658;47.992;10.158;2023-03-19T08:16:28;4.27;;;1.97;;
7233;SDS011;3658;47.992;10.158;2023-03-19T08:18:55;2.93;;;1.83;;
7233;SDS011;3658;47.992;10.158;2023-03-19T08:21:22;2.00;;;1.77;;
7233;SDS011;3658;47.992;10.158;2023-03-19T08:23:49;2.00;;;1.80;;
7233;SDS011;3658;47.992;10.158;2023-03-19T08:26:19;2.70;;;2.00;;
7233;SDS011;3658;47.992;10.158;2023-03-19T08:28:45;3.07;;;1.83;;
7233;SDS011;3658;47.992;10.158;2023-03-19T08:31:13;2.40;;;1.77;;
7233;SDS011;3658;47.992;10.158;2023-03-19T08:33:40;2.90;;;2.00;;
7233;SDS011;3658;47.992;10.158;2023-03-19T08:36:07;3.10;;;2.13;;
7233;SDS011;3658;47.992;10.158;2023-03-19T08:38:36;2.67;;;1.70;;
7233;SDS011;3658;47.992;10.158;2023-03-19T08:41:03;2.00;;;1.80;;
7233;SDS011;3658;47.992;10.158;2023-03-19T08:43:32;3.57;;;2.17;;
7233;SDS011;3658;47.992;10.158;2023-03-19T08:46:01;4.50;;;1.97;;
7233;SDS011;3658;47.992;10.158;2023-03-19T08:48:28;4.07;;;1.90;;
7233;SDS011;3658;47.992;10.158;2023-03-19T08:50:55;3.87;;;2.17;;
7233;SDS011;3658;47.992;10.158;2023-03-19T08:53:24;2.30;;;1.80;;
7233;SDS011;3658;47.992;10.158;2023-03-19T08:55:51;2.70;;;1.80;;
7233;SDS011;3658;47.992;10.158;2023-03-19T08:58:21;2.10;;;1.70;;
7233;SDS011;3658;47.992;10.158;2023-03-19T09:00:50;3.57;;;1.77;;
7233;SDS011;3658;47.992;10.158;2023-03-19T09:03:17;3.50;;;2.00;;
7233;SDS011;3658;47.992;10.158;2023-03-19T09:05:46;2.33;;;1.67;;
7233;SDS011;3658;47.992;10.158;2023-03-19T09:08:13;3.67;;;1.90;;
7233;SDS011;3658;47.992;10.158;2023-03-19T09:10:40;2.00;;;1.80;;
7233;SDS011;3658;47.992;10.158;2023-03-19T09:13:09;2.67;;;1.60;;
7233;SDS011;3658;47.992;10.158;2023-03-19T09:15:36;4.00;;;1.83;;
7233;SDS011;3658;47.992;10.158;2023-03-19T09:18:04;2.60;;;1.73;;
7233;SDS011;3658;47.992;10.158;2023-03-19T09:20:31;2.73;;;1.70;;
7233;SDS011;3658;47.992;10.158;2023-03-19T09:22:59;3.23;;;1.90;;
7233;SDS011;3658;47.992;10.158;2023-03-19T09:25:28;4.73;;;1.80;;
7233;SDS011;3658;47.992;10.158;2023-03-19T09:27:55;4.27;;;1.60;;
7233;SDS011;3658;47.992;10.158;2023-03-19T09:30:22;3.90;;;1.70;;
7233;SDS011;3658;47.992;10.158;2023-03-19T09:32:50;3.03;;;1.53;;
7233;SDS011;3658;47.992;10.158;2023-03-19T09:35:18;5.10;;;1.90;;
7233;SDS011;3658;47.992;10.158;2023-03-19T09:37:46;2.13;;;1.60;;
7233;SDS011;3658;47.992;10.158;2023-03-19T09:40:15;3.37;;;1.83;;
7233;SDS011;3658;47.992;10.158;2023-03-19T09:42:57;2.10;;;1.70;;
7233;SDS011;3658;47.992;10.158;2023-03-19T09:45:31;4.23;;;1.43;;
7233;SDS011;3658;47.992;10.158;2023-03-19T09:47:59;3.73;;;1.80;;
7233;SDS011;3658;47.992;10.158;2023-03-19T09:50:32;1.93;;;1.73;;
7233;SDS011;3658;47.992;10.158;2023-03-19T09:53:03;2.40;;;1.80;;
7233;SDS011;3658;47.992;10.158;2023-03-19T09:55:39;3.53;;;1.87;;
7233;SDS011;3658;47.992;10.158;2023-03-19T09:58:09;4.07;;;1.60;;
7233;SDS011;3658;47.992;10.158;2023-03-19T10:00:40;1.47;;;1.30;;
7233;SDS011;3658;47.992;10.158;2023-03-19T10:03:14;4.13;;;1.50;;
7233;SDS011;3658;47.992;10.158;2023-03-19T10:06:09;1.57;;;1.43;;
7233;SDS011;3658;47.992;10.158;2023-03-19T10:08:57;2.27;;;1.70;;
7233;SDS011;3658;47.992;10.158;2023-03-19T10:11:41;2.90;;;1.80;;
7233;SDS011;3658;47.992;10.158;2023-03-19T10:14:34;2.57;;;1.50;;
7233;SDS011;3658;47.992;10.158;2023-03-19T10:17:22;4.57;;;1.70;;
7233;SDS011;3658;47.992;10.158;2023-03-19T10:19:54;1.93;;;1.40;;
7233;SDS011;3658;47.992;10.158;2023-03-19T10:22:27;2.20;;;1.60;;
7233;SDS011;3658;47.992;10.158;2023-03-19T10:24:58;1.80;;;1.67;;
7233;SDS011;3658;47.992;10.158;2023-03-19T10:27:27;1.97;;;1.63;;
7233;SDS011;3658;47.992;10.158;2023-03-19T10:29:56;1.60;;;1.50;;
7233;SDS011;3658;47.992;10.158;2023-03-19T10:32:26;1.73;;;1.43;;
7233;SDS011;3658;47.992;10.158;2023-03-19T10:35:00;1.63;;;1.43;;
7233;SDS011;3658;47.992;10.158;2023-03-19T10:37:33;1.67;;;1.57;;
7233;SDS011;3658;47.992;10.158;2023-03-19T10:40:01;1.60;;;1.43;;
7233;SDS011;3658;47.992;10.158;2023-03-19T10:42:40;1.73;;;1.50;;
7233;SDS011;3658;47.992;10.158;2023-03-19T10:45:20;1.57;;;1.47;;
7233;SDS011;3658;47.992;10.158;2023-03-19T10:47:54;1.73;;;1.63;;
7233;SDS011;3658;47.992;10.158;2023-03-19T10:50:27;1.60;;;1.50;;
7233;SDS011;3658;47.992;10.158;2023-03-19T10:53:03;1.70;;;1.60;;
7233;SDS011;3658;47.992;10.158;2023-03-19T10:55:33;2.00;;;1.50;;
7233;SDS011;3658;47.992;10.158;2023-03-19T10:58:01;1.50;;;1.30;;
7233;SDS011;3658;47.992;10.158;2023-03-19T11:00:32;1.50;;;1.33;;
7233;SDS011;3658;47.992;10.158;2023-03-19T11:03:00;1.30;;;1.20;;
7233;SDS011;3658;47.992;10.158;2023-03-19T11:05:30;1.33;;;1.23;;
7233;SDS011;3658;47.992;10.158;2023-03-19T11:08:00;3.03;;;1.20;;
7233;SDS011;3658;47.992;10.158;2023-03-19T11:10:31;1.50;;;1.33;;
7233;SDS011;3658;47.992;10.158;2023-03-19T11:13:02;1.50;;;1.40;;
7233;SDS011;3658;47.992;10.158;2023-03-19T11:15:32;1.53;;;1.40;;
7233;SDS011;3658;47.992;10.158;2023-03-19T11:18:04;1.33;;;1.23;;
7233;SDS011;3658;47.992;10.158;2023-03-19T11:20:34;1.47;;;1.37;;
7233;SDS011;3658;47.992;10.158;2023-03-19T11:23:05;1.90;;;1.50;;
7233;SDS011;3658;47.992;10.158;2023-03-19T11:25:38;1.70;;;1.47;;
7233;SDS011;3658;47.992;10.158;2023-03-19T11:28:07;1.40;;;1.30;;
7233;SDS011;3658;47.992;10.158;2023-03-19T11:30:40;1.70;;;1.60;;
7233;SDS011;3658;47.992;10.158;2023-03-19T11:36:07;1.40;;;1.30;;
7233;SDS011;3658;47.992;10.158;2023-03-19T11:38:42;1.30;;;1.20;;
7233;SDS011;3658;47.992;10.158;2023-03-19T11:41:21;1.40;;;1.30;;
7233;SDS011;3658;47.992;10.158;2023-03-19T11:43:59;1.30;;;1.20;;
7233;SDS011;3658;47.992;10.158;2023-03-19T11:46:33;1.40;;;1.30;;
7233;SDS011;3658;47.992;10.158;2023-03-19T11:52:03;1.40;;;1.30;;
7233;SDS011;3658;47.992;10.158;2023-03-19T11:54:46;1.90;;;1.23;;
7233;SDS011;3658;47.992;10.158;2023-03-19T11:57:23;1.07;;;1.03;;
7233;SDS011;3658;47.992;10.158;2023-03-19T12:00:02;1.40;;;1.30;;
7233;SDS011;3658;47.992;10.158;2023-03-19T12:05:45;1.50;;;1.40;;
7233;SDS011;3658;47.992;10.158;2023-03-19T12:08:24;5.27;;;2.17;;
7233;SDS011;3658;47.992;10.158;2023-03-19T12:11:08;2.57;;;2.10;;
7233;SDS011;3658;47.992;10.158;2023-03-19T12:16:32;2.90;;;2.40;;
7233;SDS011;3658;47.992;10.158;2023-03-19T12:19:17;3.40;;;2.60;;
7233;SDS011;3658;47.992;10.158;2023-03-19T12:22:03;2.77;;;2.30;;
7233;SDS011;3658;47.992;10.158;2023-03-19T12:24:41;5.60;;;2.60;;
7233;SDS011;3658;47.992;10.158;2023-03-19T12:27:21;3.23;;;2.23;;
7233;SDS011;3658;47.992;10.158;2023-03-19T12:29:55;3.03;;;2.17;;
7233;SDS011;3658;47.992;10.158;2023-03-19T12:32:33;4.27;;;2.30;;
7233;SDS011;3658;47.992;10.158;2023-03-19T12:35:21;3.63;;;2.17;;
7233;SDS011;3658;47.992;10.158;2023-03-19T12:37:55;4.17;;;2.40;;
7233;SDS011;3658;47.992;10.158;2023-03-19T12:40:27;4.57;;;2.50;;
7233;SDS011;3658;47.992;10.158;2023-03-19T12:43:03;3.83;;;2.27;;
7233;SDS011;3658;47.992;10.158;2023-03-19T12:45:33;5.37;;;2.33;;
7233;SDS011;3658;47.992;10.158;2023-03-19T12:48:05;2.70;;;1.80;;
7233;SDS011;3658;47.992;10.158;2023-03-19T12:50:36;2.67;;;1.80;;
7233;SDS011;3658;47.992;10.158;2023-03-19T12:53:08;2.93;;;1.90;;
7233;SDS011;3658;47.992;10.158;2023-03-19T12:55:48;5.50;;;2.00;;
7233;SDS011;3658;47.992;10.158;2023-03-19T12:58:23;3.07;;;1.77;;
7233;SDS011;3658;47.992;10.158;2023-03-19T13:00:55;3.00;;;1.60;;
7233;SDS011;3658;47.992;10.158;2023-03-19T13:03:27;2.40;;;1.73;;
7233;SDS011;3658;47.992;10.158;2023-03-19T13:06:04;2.33;;;1.70;;
7233;SDS011;3658;47.992;10.158;2023-03-19T13:08:36;4.10;;;2.00;;
7233;SDS011;3658;47.992;10.158;2023-03-19T13:11:09;2.50;;;1.60;;
7233;SDS011;3658;47.992;10.158;2023-03-19T13:13:42;2.20;;;1.63;;
7233;SDS011;3658;47.992;10.158;2023-03-19T13:16:26;2.10;;;1.70;;
7233;SDS011;3658;47.992;10.158;2023-03-19T13:19:01;2.07;;;1.50;;
7233;SDS011;3658;47.992;10.158;2023-03-19T13:21:35;2.20;;;1.80;;
7233;SDS011;3658;47.992;10.158;2023-03-19T13:24:06;2.40;;;1.80;;
7233;SDS011;3658;47.992;10.158;2023-03-19T13:26:41;3.73;;;2.30;;
7233;SDS011;3658;47.992;10.158;2023-03-19T13:29:16;4.93;;;3.67;;
7233;SDS011;3658;47.992;10.158;2023-03-19T13:31:46;5.33;;;4.10;;
7233;SDS011;3658;47.992;10.158;2023-03-19T13:34:18;7.37;;;3.60;;
7233;SDS011;3658;47.992;10.158;2023-03-19T13:36:51;4.10;;;3.53;;
7233;SDS011;3658;47.992;10.158;2023-03-19T13:39:26;6.10;;;3.77;;
7233;SDS011;3658;47.992;10.158;2023-03-19T13:42:05;4.20;;;3.73;;
7233;SDS011;3658;47.992;10.158;2023-03-19T13:44:49;4.47;;;3.60;;
7233;SDS011;3658;47.992;10.158;2023-03-19T13:47:40;6.13;;;3.60;;
7233;SDS011;3658;47.992;10.158;2023-03-19T13:50:25;6.00;;;3.20;;
7233;SDS011;3658;47.992;10.158;2023-03-19T13:53:11;7.33;;;3.60;;
7233;SDS011;3658;47.992;10.158;2023-03-19T13:55:50;4.93;;;3.60;;
7233;SDS011;3658;47.992;10.158;2023-03-19T13:58:23;4.80;;;3.67;;
7233;SDS011;3658;47.992;10.158;2023-03-19T14:01:11;4.47;;;3.20;;
7233;SDS011;3658;47.992;10.158;2023-03-19T14:04:02;8.23;;;3.30;;
7233;SDS011;3658;47.992;10.158;2023-03-19T14:06:32;6.60;;;3.30;;
7233;SDS011;3658;47.992;10.158;2023-03-19T14:09:01;4.27;;;2.93;;
7233;SDS011;3658;47.992;10.158;2023-03-19T14:11:30;5.90;;;3.00;;
7233;SDS011;3658;47.992;10.158;2023-03-19T14:14:02;4.23;;;2.90;;
7233;SDS011;3658;47.992;10.158;2023-03-19T14:16:32;4.57;;;2.50;;
7233;SDS011;3658;47.992;10.158;2023-03-19T14:19:01;3.47;;;2.53;;
7233;SDS011;3658;47.992;10.158;2023-03-19T14:21:38;6.70;;;2.97;;
7233;SDS011;3658;47.992;10.158;2023-03-19T14:27:00;3.13;;;2.50;;
7233;SDS011;3658;47.992;10.158;2023-03-19T14:29:29;3.30;;;2.37;;
7233;SDS011;3658;47.992;10.158;2023-03-19T14:32:04;4.77;;;2.57;;
7233;SDS011;3658;47.992;10.158;2023-03-19T14:34:35;4.00;;;2.70;;
7233;SDS011;3658;47.992;10.158;2023-03-19T14:37:07;2.80;;;2.33;;
7233;SDS011;3658;47.992;10.158;2023-03-19T14:39:44;3.03;;;2.70;;
7233;SDS011;3658;47.992;10.158;2023-03-19T14:42:18;3.30;;;2.27;;
7233;SDS011;3658;47.992;10.158;2023-03-19T14:47:54;3.70;;;2.60;;
7233;SDS011;3658;47.992;10.158;2023-03-19T14:50:48;4.17;;;2.73;;
7233;SDS011;3658;47.992;10.158;2023-03-19T14:53:29;3.70;;;2.40;;
7233;SDS011;3658;47.992;10.158;2023-03-19T14:56:09;4.33;;;2.80;;
7233;SDS011;3658;47.992;10.158;2023-03-19T14:58:46;3.97;;;2.60;;
7233;SDS011;3658;47.992;10.158;2023-03-19T15:01:14;2.83;;;2.13;;
7233;SDS011;3658;47.992;10.158;2023-03-19T15:03:43;2.40;;;2.20;;
7233;SDS011;3658;47.992;10.158;2023-03-19T15:06:11;3.93;;;2.90;;
7233;SDS011;3658;47.992;10.158;2023-03-19T15:08:40;5.17;;;2.40;;
7233;SDS011;3658;47.992;10.158;2023-03-19T15:11:19;3.47;;;2.53;;
7233;SDS011;3658;47.992;10.158;2023-03-19T15:14:02;3.90;;;2.27;;
7233;SDS011;3658;47.992;10.158;2023-03-19T15:16:42;2.67;;;2.23;;
7233;SDS011;3658;47.992;10.158;2023-03-19T15:19:21;5.43;;;2.50;;
7233;SDS011;3658;47.992;10.158;2023-03-19T15:21:51;4.13;;;2.50;;
7233;SDS011;3658;47.992;10.158;2023-03-19T15:24:29;4.67;;;2.53;;
7233;SDS011;3658;47.992;10.158;2023-03-19T15:26:57;3.23;;;2.20;;
7233;SDS011;3658;47.992;10.158;2023-03-19T15:29:33;4.53;;;2.17;;
7233;SDS011;3658;47.992;10.158;2023-03-19T15:32:00;4.63;;;2.10;;
7233;SDS011;3658;47.992;10.158;2023-03-19T15:34:28;3.47;;;2.40;;
7233;SDS011;3658;47.992;10.158;2023-03-19T15:36:57;3.77;;;2.33;;